Terminal Aerodrome Forecast
Issued by NWS Wilmington, NC

Home | Current Version | Previous Version | Text Only | Print | Product List | Glossary On
Versions: 1 2 3 4 5 6 7 8 9 10 11 12 13 14 15 16 17
000
FTUS42 KILM 252300
TAFMYR
TAF
KMYR 252331Z 2600/2624 17010KT P6SM FEW250
     FM260500 21006KT P6SM FEW120 FEW250
     FM260900 24007KT P6SM SCT035 BKN090
     FM261100 26010KT P6SM SCT030 BKN050 BKN100
     FM261700 29012G22KT P6SM VCSH BKN030
      AMD LTD TO CLD VIS AND WIND 2604/2611=

USA.gov is the U.S. government's official web portal to all federal, state and local government web resources and services.